Time;durP1;ratioP1;P1;durP2;ratioP2;P2;SDS_P1;SDS_P2;PMS_P1;PMS_P2;Temp;Humidity;BMP_temperature;BMP_pressure;BME280_temperature;BME280_humidity;BME280_pressure;Samples;Min_cycle;Max_cycle;Signal;HPM_P1;HPM_P2
2023/10/11 00:02:17;;;;;;;7.45;3.80;;;;;;;26.11;43.35;97045.72;6127639;23;20009;-26
2023/10/11 00:04:48;;;;;;;7.78;3.58;;;;;;;26.09;43.20;97042.72;6127788;23;20491;-25
2023/10/11 00:07:18;;;;;;;8.60;3.50;;;;;;;25.96;42.24;97039.78;6127678;23;20005;-25
2023/10/11 00:09:44;;;;;;;5.88;3.22;;;;;;;26.06;42.09;97038.97;6127610;23;20025;-26
2023/10/11 00:12:11;;;;;;;15.48;3.90;;;;;;;26.22;41.52;97039.34;6127529;23;20028;-26
2023/10/11 00:14:40;;;;;;;6.35;3.30;;;;;;;25.89;40.96;97038.28;6127715;23;20002;-26
2023/10/11 00:17:08;;;;;;;7.03;3.05;;;;;;;25.92;40.48;97034.50;6127448;23;20014;-26
2023/10/11 00:19:34;;;;;;;6.40;2.88;;;;;;;25.95;39.57;97038.28;6127754;23;20009;-26
2023/10/11 00:22:00;;;;;;;6.68;2.90;;;;;;;26.03;39.71;97034.41;6127634;23;20002;-25
2023/10/11 00:24:28;;;;;;;7.13;3.13;;;;;;;26.04;39.67;97038.72;6127340;23;20012;-25
2023/10/11 00:26:55;;;;;;;8.93;3.33;;;;;;;26.17;37.88;97035.34;6127652;23;20018;-25
2023/10/11 00:29:21;;;;;;;7.90;3.17;;;;;;;26.25;36.57;97032.75;6127458;23;20064;-25
2023/10/11 00:31:46;;;;;;;6.93;3.25;;;;;;;26.18;36.23;97039.63;6127743;23;20006;-26
2023/10/11 00:34:12;;;;;;;7.75;3.45;;;;;;;26.06;35.91;97038.97;6127471;23;20049;-25
2023/10/11 00:36:39;;;;;;;6.82;3.13;;;;;;;26.04;35.74;97035.19;6127360;23;20089;-25
2023/10/11 00:39:07;;;;;;;6.55;3.70;;;;;;;26.05;35.63;97037.44;6127470;23;20002;-26
2023/10/11 00:41:39;;;;;;;6.63;3.05;;;;;;;26.13;34.71;97038.38;6127153;23;20002;-25
2023/10/11 00:44:05;;;;;;;7.85;2.90;;;;;;;26.11;34.83;97046.50;6127518;23;20006;-25
2023/10/11 00:46:38;;;;;;;5.72;2.80;;;;;;;26.17;34.86;97034.59;6127166;23;20385;-25
2023/10/11 00:49:12;;;;;;;11.20;4.10;;;;;;;26.04;35.37;97035.94;6127504;23;20026;-25
2023/10/11 00:51:41;;;;;;;10.80;3.38;;;;;;;26.01;34.92;97025.84;6127309;23;20048;-26
2023/10/11 00:54:07;;;;;;;7.63;3.45;;;;;;;26.11;34.63;97029.81;6127242;23;20017;-25
2023/10/11 00:56:34;;;;;;;6.35;2.97;;;;;;;26.20;34.99;97030.78;6127406;23;20397;-26
2023/10/11 00:59:03;;;;;;;5.93;3.40;;;;;;;25.98;34.89;97026.88;6127073;23;20069;-25
2023/10/11 01:01:28;;;;;;;6.90;2.95;;;;;;;25.97;35.15;97022.56;6127235;23;20005;-26
2023/10/11 01:03:55;;;;;;;8.90;3.25;;;;;;;26.02;35.70;97027.34;6127043;23;20314;-25
2023/10/11 01:06:25;;;;;;;7.32;3.20;;;;;;;26.02;36.15;97027.34;6127176;23;20005;-26
2023/10/11 01:08:52;;;;;;;10.73;3.25;;;;;;;25.81;36.61;97017.91;6127123;23;19998;-26
2023/10/11 01:11:17;;;;;;;6.18;3.13;;;;;;;26.08;36.76;97021.75;6127058;23;20450;-26
2023/10/11 01:13:50;;;;;;;8.40;3.47;;;;;;;25.92;37.04;97023.38;6127159;23;20012;-25
2023/10/11 01:16:16;;;;;;;;;;;;;;;25.85;37.74;97015.56;6127200;23;19998;-25
2023/10/11 01:18:42;;;;;;;8.70;3.35;;;;;;;26.01;37.62;97017.50;6127137;23;20326;-25
2023/10/11 01:21:08;;;;;;;8.93;3.47;;;;;;;25.96;38.12;97023.88;6126991;23;20002;-26
2023/10/11 01:23:35;;;;;;;7.18;3.38;;;;;;;25.85;38.71;97012.03;6127027;23;20088;-26
2023/10/11 01:26:08;;;;;;;8.10;3.15;;;;;;;25.77;39.08;97015.38;6126930;23;20009;-25
2023/10/11 01:28:37;;;;;;;;;;;;;;;25.88;38.67;97016.56;6127282;23;20012;-26
2023/10/11 01:31:08;;;;;;;7.38;3.03;;;;;;;25.81;39.26;97012.34;6126978;23;20319;-26
2023/10/11 01:33:40;;;;;;;10.32;3.55;;;;;;;25.88;38.86;97002.69;6101011;23;20312;-25
2023/10/11 01:36:10;;;;;;;7.50;3.60;;;;;;;25.97;38.57;97014.22;6126636;23;20346;-26
2023/10/11 01:38:48;;;;;;;6.22;3.10;;;;;;;25.78;38.97;97007.81;6126896;23;20329;-26
2023/10/11 01:41:21;;;;;;;8.07;3.30;;;;;;;25.72;39.31;97004.28;6127152;23;20029;-25
2023/10/11 01:43:47;;;;;;;6.47;3.43;;;;;;;25.80;39.04;97005.28;6126669;23;20907;-25
2023/10/11 01:46:17;;;;;;;5.30;3.58;;;;;;;25.82;38.77;97008.28;6126733;23;20266;-26
2023/10/11 01:48:45;;;;;;;6.55;3.17;;;;;;;25.69;39.30;97006.09;6126595;23;20073;-26
2023/10/11 01:51:21;;;;;;;6.47;3.35;;;;;;;25.76;38.44;97007.56;6126561;23;20006;-25
2023/10/11 01:53:47;;;;;;;6.22;3.22;;;;;;;25.62;39.22;97005.88;6126763;23;20301;-26
2023/10/11 01:56:13;;;;;;;6.38;3.20;;;;;;;25.65;38.66;97004.84;6127029;23;20002;-25
2023/10/11 01:58:42;;;;;;;6.80;3.60;;;;;;;25.65;38.57;97010.41;6100714;23;20345;-25
2023/10/11 02:01:21;;;;;;;6.38;3.22;;;;;;;25.48;38.48;97001.34;6126737;23;20064;-25
2023/10/11 02:03:46;;;;;;;5.93;3.13;;;;;;;25.42;38.42;97004.94;6126806;23;20337;-24
2023/10/11 02:06:13;;;;;;;9.55;3.60;;;;;;;25.59;38.29;97002.06;6126420;23;20021;-25
2023/10/11 02:08:38;;;;;;;7.50;3.45;;;;;;;25.63;38.05;97001.81;6126591;23;20002;-25
2023/10/11 02:11:05;;;;;;;8.65;3.58;;;;;;;25.54;38.06;96994.53;6126489;23;20090;-25
2023/10/11 02:13:31;;;;;;;5.45;2.97;;;;;;;25.65;37.67;96999.28;6126409;23;20026;-25
2023/10/11 02:16:00;;;;;;;7.18;3.30;;;;;;;25.79;37.55;97000.97;6126750;23;20005;-25
2023/10/11 02:18:26;;;;;;;7.00;3.33;;;;;;;25.70;38.18;96992.97;6126376;23;20006;-25
2023/10/11 02:20:55;;;;;;;10.40;3.20;;;;;;;25.61;37.78;96994.00;6126595;23;20052;-25
2023/10/11 02:23:21;;;;;;;5.20;2.78;;;;;;;25.61;37.91;96998.78;6126501;23;20131;-25
2023/10/11 02:25:47;;;;;;;7.72;3.17;;;;;;;25.59;37.47;96990.94;6126363;23;20005;-26
2023/10/11 02:28:15;;;;;;;7.30;3.25;;;;;;;25.62;37.25;96987.19;6126396;23;20010;-25
2023/10/11 02:30:42;;;;;;;8.00;2.92;;;;;;;25.60;37.42;96986.16;6126243;23;20009;-25
2023/10/11 02:33:07;;;;;;;7.68;3.65;;;;;;;25.71;37.00;96989.66;6126518;23;20013;-25
2023/10/11 02:35:44;;;;;;;6.75;3.42;;;;;;;25.48;37.61;96977.13;6126038;23;20420;-26
2023/10/11 02:38:10;;;;;;;8.27;3.47;;;;;;;25.70;37.09;96971.50;6126570;23;20012;-26
2023/10/11 02:40:38;;;;;;;7.18;2.88;;;;;;;25.40;37.24;96974.13;6100067;23;20365;-26
2023/10/11 02:43:03;;;;;;;4.65;2.90;;;;;;;25.63;37.15;96982.38;6126468;23;20064;-25
2023/10/11 02:45:32;;;;;;;5.28;3.10;;;;;;;25.50;37.33;96976.63;6126292;23;20057;-25
2023/10/11 02:48:02;;;;;;;8.88;3.15;;;;;;;25.57;37.40;96973.31;6126358;23;20740;-25
2023/10/11 02:50:36;;;;;;;5.55;3.13;;;;;;;25.55;37.09;96982.16;6126684;23;20010;-25
2023/10/11 02:53:05;;;;;;;5.03;3.00;;;;;;;25.53;37.31;96972.81;6126250;23;20029;-25
2023/10/11 02:55:30;;;;;;;6.57;3.20;;;;;;;25.67;37.42;96980.09;6126212;23;20325;-25
2023/10/11 02:58:06;;;;;;;7.45;3.72;;;;;;;25.70;37.31;96974.28;6126097;23;20012;-25
2023/10/11 03:00:33;;;;;;;9.43;3.20;;;;;;;25.56;37.06;96975.31;6126223;23;20016;-25
2023/10/11 03:03:00;;;;;;;6.65;3.17;;;;;;;25.44;37.45;96968.31;6125969;23;20002;-26
2023/10/11 03:05:29;;;;;;;5.55;3.35;;;;;;;25.50;37.39;96965.50;6126025;23;20001;-25
2023/10/11 03:08:13;;;;;;;4.95;3.70;;;;;;;25.63;36.92;96974.03;6125918;23;20499;-25
2023/10/11 03:10:56;;;;;;;7.85;3.20;;;;;;;25.54;37.58;96971.56;6126151;23;20033;-25
2023/10/11 03:13:24;;;;;;;7.72;3.00;;;;;;;25.51;37.21;96964.25;6126212;23;20040;-25
2023/10/11 03:15:56;;;;;;;6.25;3.35;;;;;;;25.55;37.61;96967.50;6126019;23;20002;-25
2023/10/11 03:18:26;;;;;;;9.13;3.22;;;;;;;25.56;37.64;96969.78;6125912;23;20436;-25
2023/10/11 03:21:07;;;;;;;5.47;2.90;;;;;;;25.53;38.03;96970.03;6126099;23;20002;-26
2023/10/11 03:23:36;;;;;;;5.95;3.15;;;;;;;25.45;38.25;96964.28;6126205;23;20704;-25
2023/10/11 03:26:16;;;;;;;7.25;3.58;;;;;;;25.60;37.73;96969.47;6125656;23;20017;-25
2023/10/11 03:28:41;;;;;;;9.38;3.20;;;;;;;25.48;38.29;96962.47;6126200;23;20436;-25
2023/10/11 03:31:07;;;;;;;6.07;2.92;;;;;;;25.51;37.90;96967.78;6125974;23;20009;-25
2023/10/11 03:33:32;;;;;;;10.38;3.13;;;;;;;25.45;37.70;96969.09;6125890;23;20436;-25
2023/10/11 03:36:01;;;;;;;5.05;3.13;;;;;;;25.53;37.31;96964.47;6125776;23;20009;-25
2023/10/11 03:38:32;;;;;;;5.40;3.08;;;;;;;25.42;38.21;96966.06;6125811;23;20040;-25
2023/10/11 03:41:15;;;;;;;12.48;3.40;;;;;;;25.47;38.01;96967.28;6126009;23;20006;-25
2023/10/11 03:43:41;;;;;;;9.10;3.03;;;;;;;25.50;38.43;96963.47;6125749;23;20088;-25
2023/10/11 03:46:10;;;;;;;5.63;3.03;;;;;;;25.60;38.31;96970.22;6125866;23;20077;-25
2023/10/11 03:48:51;;;;;;;6.35;3.47;;;;;;;25.37;38.33;96969.59;6125766;23;20010;-25
2023/10/11 03:51:19;;;;;;;7.63;3.42;;;;;;;25.29;38.81;96968.66;6126126;23;20341;-25
2023/10/11 03:53:47;;;;;;;7.05;3.45;;;;;;;25.35;38.79;96966.59;6125806;23;20122;-25
2023/10/11 03:56:13;;;;;;;7.05;3.05;;;;;;;25.41;38.57;96972.88;6125897;23;20057;-26
2023/10/11 03:58:39;;;;;;;10.10;3.70;;;;;;;25.33;38.71;96974.69;6126042;23;20006;-26
2023/10/11 04:03:35;;;;;;;8.65;3.30;;;;;;;25.46;37.47;96976.16;6126416;23;20010;-25
2023/10/11 04:06:01;;;;;;;6.13;2.90;;;;;;;25.19;38.45;96975.00;6125585;23;20013;-25
2023/10/11 04:08:27;;;;;;;7.05;3.00;;;;;;;25.47;38.15;96981.16;6125752;23;20141;-25
2023/10/11 04:10:53;;;;;;;6.40;3.15;;;;;;;25.44;38.64;96981.44;6125721;23;20009;-25
2023/10/11 04:13:25;;;;;;;8.00;3.28;;;;;;;25.35;38.03;96977.69;6125748;23;20009;-25
2023/10/11 04:15:53;;;;;;;4.45;3.22;;;;;;;25.21;38.67;96983.56;6126055;23;20021;-25
2023/10/11 04:18:33;;;;;;;5.68;3.20;;;;;;;25.15;39.01;96975.25;6125860;23;20061;-26
2023/10/11 04:23:35;;;;;;;7.82;3.10;;;;;;;25.19;38.34;96986.09;6129697;23;20344;-26
2023/10/11 04:26:08;;;;;;;6.05;2.95;;;;;;;25.29;38.54;96990.84;6125709;23;20014;-25
2023/10/11 04:28:34;;;;;;;7.05;3.17;;;;;;;25.32;37.81;96984.28;6125699;23;20006;-25
2023/10/11 04:33:50;;;;;;;6.78;3.60;;;;;;;25.27;37.54;96975.97;6125813;23;20060;-25
2023/10/11 04:36:20;;;;;;;5.65;2.70;;;;;;;25.46;36.96;96979.69;6126588;23;20041;-25
2023/10/11 04:38:49;;;;;;;9.05;3.85;;;;;;;25.46;37.40;96981.69;6127222;23;20002;-25
2023/10/11 04:41:16;;;;;;;6.25;3.75;;;;;;;25.33;37.02;96980.25;6127441;23;19998;-26
2023/10/11 04:43:50;;;;;;;12.18;3.35;;;;;;;25.28;37.12;96983.78;6127193;23;20006;-25
2023/10/11 04:46:16;;;;;;;6.32;3.08;;;;;;;25.25;36.91;96984.81;6127564;23;20002;-25
2023/10/11 04:48:44;;;;;;;5.68;3.50;;;;;;;25.32;36.94;96977.97;6127170;23;20013;-25
2023/10/11 04:53:54;;;;;;;7.28;3.22;;;;;;;25.34;36.42;96981.75;6130428;23;20010;-25
2023/10/11 04:59:06;;;;;;;8.48;3.40;;;;;;;25.19;35.85;96986.88;6127609;23;20037;-25
2023/10/11 05:04:33;;;;;;;7.15;3.40;;;;;;;25.11;36.11;96985.09;6128829;23;20009;-26
2023/10/11 05:07:09;;;;;;;8.45;3.35;;;;;;;24.96;37.13;96999.31;6126939;23;20410;-25
2023/10/11 05:09:39;;;;;;;7.57;3.58;;;;;;;25.15;36.89;96996.72;6127353;23;20503;-25
2023/10/11 05:12:08;;;;;;;7.10;3.53;;;;;;;25.15;36.92;96989.13;6127097;23;20037;-25
2023/10/11 05:17:30;;;;;;;8.70;3.65;;;;;;;24.89;37.41;96995.00;6129973;23;20033;-25
2023/10/11 05:20:20;;;;;;;9.55;4.20;;;;;;;24.95;37.45;96995.78;6127405;23;20384;-25
2023/10/11 05:25:16;;;;;;;6.15;3.67;;;;;;;24.92;37.57;96993.97;6127523;23;20320;-25
2023/10/11 05:27:49;;;;;;;6.18;3.53;;;;;;;24.89;37.68;97000.53;6126951;23;20475;-25
2023/10/11 05:32:54;;;;;;;8.48;3.70;;;;;;;24.90;37.57;97001.28;6127682;23;20456;-25
2023/10/11 05:51:32;;;;;;;9.30;4.80;;;;;;;25.04;38.35;97025.25;6097520;23;20033;-25
2023/10/11 05:53:59;;;;;;;9.48;4.43;;;;;;;25.01;37.66;97015.16;6097199;23;20085;-25
2023/10/11 05:56:26;;;;;;;6.22;3.30;;;;;;;25.09;37.55;97016.19;6097444;23;20017;-25
2023/10/11 05:58:54;;;;;;;10.00;3.65;;;;;;;25.14;37.27;97020.19;6097275;23;20038;-25
2023/10/11 06:01:22;;;;;;;8.07;3.63;;;;;;;25.17;37.21;97022.69;6097595;23;20081;-25
2023/10/11 06:03:49;;;;;;;8.40;3.80;;;;;;;25.18;36.79;97029.75;6097213;23;20013;-25
2023/10/11 06:06:27;;;;;;;10.60;5.20;;;;;;;25.16;36.89;97031.53;6097357;23;20009;-25
2023/10/11 06:08:54;;;;;;;7.28;4.13;;;;;;;25.11;36.35;97035.06;6097253;23;20006;-25
2023/10/11 06:11:23;;;;;;;7.78;3.70;;;;;;;25.22;35.96;97035.78;6097436;23;20006;-25
2023/10/11 06:13:52;;;;;;;6.47;3.90;;;;;;;24.93;36.67;97039.16;6097367;23;20040;-25
2023/10/11 06:16:19;;;;;;;7.38;3.40;;;;;;;24.96;37.40;97040.94;6096911;23;20006;-25
2023/10/11 06:18:55;;;;;;;9.75;3.70;;;;;;;24.97;37.75;97042.44;6097264;23;20440;-25
2023/10/11 06:21:30;;;;;;;6.75;3.47;;;;;;;24.97;37.88;97050.75;6097147;23;20006;-25
2023/10/11 06:23:57;;;;;;;7.00;3.70;;;;;;;24.73;38.81;97051.25;6097179;23;20122;-25
2023/10/11 06:26:28;;;;;;;9.20;4.43;;;;;;;24.79;39.10;97051.25;6096878;23;20358;-25
2023/10/11 06:29:03;;;;;;;9.95;3.88;;;;;;;24.80;39.75;97055.53;6097191;23;20012;-25
2023/10/11 06:31:34;;;;;;;12.30;4.13;;;;;;;24.80;40.14;97055.53;6096929;23;20062;-25
2023/10/11 06:34:15;;;;;;;7.03;4.07;;;;;;;24.91;40.07;97049.97;6097362;23;20369;-25
2023/10/11 06:36:42;;;;;;;7.00;3.75;;;;;;;24.83;40.72;97046.22;6112312;23;20485;-25
2023/10/11 06:39:33;;;;;;;10.18;3.75;;;;;;;25.06;39.89;97053.25;6126317;23;21265;-25
2023/10/11 06:41:53;;;;;;;10.25;4.07;;;;;;;24.91;40.10;97049.97;6126329;23;20305;-25
2023/10/11 06:44:18;;;;;;;7.47;3.80;;;;;;;25.05;40.06;97051.75;6126489;23;20093;-25
2023/10/11 06:46:47;;;;;;;9.68;3.75;;;;;;;25.05;40.05;97060.06;6126031;23;20026;-25
2023/10/11 06:49:14;;;;;;;8.50;4.07;;;;;;;25.02;40.16;97052.75;6126354;23;20006;-25
2023/10/11 06:51:41;;;;;;;6.32;3.92;;;;;;;24.99;40.51;97057.28;6126225;23;20006;-25
2023/10/11 06:54:08;;;;;;;9.00;4.97;;;;;;;25.03;40.83;97068.91;6126369;23;20006;-25
2023/10/11 06:56:35;;;;;;;10.88;4.65;;;;;;;25.25;41.09;97068.09;6126382;23;19998;-25
2023/10/11 06:59:00;;;;;;;12.27;4.72;;;;;;;25.42;40.56;97063.25;6125748;23;20002;-26
2023/10/11 07:01:30;;;;;;;8.45;4.55;;;;;;;25.28;40.99;97071.88;6126416;23;20002;-26
2023/10/11 07:03:57;;;;;;;7.57;4.20;;;;;;;25.33;40.72;97076.66;6125259;23;20030;-26
2023/10/11 07:06:22;;;;;;;8.57;4.40;;;;;;;25.30;41.04;97074.91;6126079;23;20487;-25
2023/10/11 07:08:52;;;;;;;12.02;4.75;;;;;;;25.32;41.35;97078.69;6126226;23;20002;-26
2023/10/11 07:11:41;;;;;;;9.20;4.40;;;;;;;25.19;41.52;97075.69;6126168;23;20001;-25
2023/10/11 07:14:14;;;;;;;11.18;4.78;;;;;;;25.40;41.33;97084.44;6125701;23;20443;-25
2023/10/11 07:16:42;;;;;;;8.25;4.22;;;;;;;25.41;41.23;97080.41;6126279;23;19998;-26
2023/10/11 07:19:09;;;;;;;8.75;4.32;;;;;;;25.46;41.42;97078.88;6125805;23;20006;-26
2023/10/11 07:24:32;;;;;;;13.52;4.82;;;;;;;25.45;41.49;97088.50;6127253;23;20421;-25
2023/10/11 07:27:08;;;;;;;10.88;4.68;;;;;;;25.38;41.85;97098.84;6125902;23;20006;-25
2023/10/11 07:29:35;;;;;;;10.77;3.88;;;;;;;25.38;42.03;97098.84;6126027;23;20376;-25
2023/10/11 07:32:02;;;;;;;8.68;4.03;;;;;;;25.51;42.25;97100.31;6126049;23;20010;-25
2023/10/11 07:34:27;;;;;;;8.13;3.85;;;;;;;25.42;42.89;97096.56;6125768;23;20009;-25
2023/10/11 07:36:53;;;;;;;9.18;4.25;;;;;;;25.42;43.03;97095.81;6125921;23;20018;-25
2023/10/11 07:39:25;;;;;;;8.18;4.28;;;;;;;25.56;42.76;97105.88;6126028;23;20012;-25
2023/10/11 07:42:36;;;;;;;8.73;4.90;;;;;;;25.25;44.19;97100.66;6126056;23;20425;-25
2023/10/11 07:44:52;;;;;;;10.52;4.22;;;;;;;25.35;44.46;97097.06;6120389;23;20089;-25
2023/10/11 07:47:18;;;;;;;9.63;5.38;;;;;;;25.52;44.26;97097.03;6126240;23;20002;-26
2023/10/11 07:49:45;;;;;;;9.30;4.28;;;;;;;25.49;43.70;97091.75;6125893;23;20006;-26
2023/10/11 07:52:19;;;;;;;10.20;4.38;;;;;;;25.37;44.17;97104.91;6125999;23;20005;-25
2023/10/11 07:54:44;;;;;;;8.07;4.18;;;;;;;25.40;44.29;97096.31;6125748;23;20536;-26
2023/10/11 07:57:16;;;;;;;8.50;3.90;;;;;;;25.51;43.59;97100.31;6126103;23;20064;-26
2023/10/11 07:59:44;;;;;;;8.60;4.22;;;;;;;25.50;43.44;97098.81;6126067;23;20006;-25
2023/10/11 08:02:32;;;;;;;7.20;4.30;;;;;;;25.56;44.02;97102.34;6125787;23;20048;-25
2023/10/11 08:04:57;;;;;;;11.30;4.68;;;;;;;25.66;43.87;97107.13;6125094;23;20006;-25
2023/10/11 08:07:23;;;;;;;16.38;4.82;;;;;;;25.61;44.01;97099.53;6125879;23;20006;-25
2023/10/11 08:09:52;;;;;;;10.32;3.88;;;;;;;25.63;43.68;97105.34;6125755;23;20417;-26
2023/10/11 08:12:21;;;;;;;10.55;4.45;;;;;;;25.72;43.56;97105.06;6127318;23;20010;-25
2023/10/11 08:14:47;;;;;;;6.50;3.50;;;;;;;25.46;44.38;97104.63;6127914;23;20398;-25
2023/10/11 08:17:19;;;;;;;14.48;5.30;;;;;;;25.79;43.80;97108.56;6127656;23;20084;-25
2023/10/11 08:19:46;;;;;;;14.32;4.97;;;;;;;25.68;44.01;97112.16;6127913;23;20369;-25
2023/10/11 08:22:14;;;;;;;8.30;4.32;;;;;;;25.66;44.09;97114.69;6126997;23;20009;-25
2023/10/11 08:24:56;;;;;;;10.10;4.53;;;;;;;25.68;44.12;97121.25;6127300;23;20013;-25
2023/10/11 08:27:28;;;;;;;12.43;4.77;;;;;;;25.55;44.91;97120.25;6127408;23;20006;-25
2023/10/11 08:30:05;;;;;;;11.13;4.45;;;;;;;25.76;44.42;97113.13;6101703;23;20013;-26
2023/10/11 08:32:32;;;;;;;11.00;5.05;;;;;;;25.93;44.01;97119.38;6127167;23;20012;-25
2023/10/11 08:34:58;;;;;;;9.80;4.35;;;;;;;25.87;43.97;97120.66;6101583;23;20010;-25
2023/10/11 08:37:24;;;;;;;10.88;4.80;;;;;;;26.06;44.02;97118.81;6127089;23;20036;-25
2023/10/11 08:39:54;;;;;;;8.48;4.70;;;;;;;26.10;44.00;97122.06;6127430;23;20002;-26
2023/10/11 08:42:22;;;;;;;10.27;5.00;;;;;;;26.10;43.83;97125.59;6127467;23;20013;-25
2023/10/11 08:44:49;;;;;;;7.45;4.93;;;;;;;26.17;43.28;97118.75;6127126;23;20010;-25
2023/10/11 08:47:19;;;;;;;11.95;5.00;;;;;;;26.21;43.35;97116.44;6127152;23;20054;-25
2023/10/11 08:49:51;;;;;;;9.02;4.72;;;;;;;26.26;43.28;97114.91;6127341;23;20464;-25
2023/10/11 08:52:24;;;;;;;8.23;4.85;;;;;;;26.27;43.73;97122.72;6127397;23;20363;-25
2023/10/11 08:54:51;;;;;;;9.63;4.80;;;;;;;26.19;43.92;97123.78;6127316;23;20009;-25
2023/10/11 08:57:26;;;;;;;6.63;4.38;;;;;;;26.32;43.22;97124.00;6127185;23;20001;-25
2023/10/11 08:59:56;;;;;;;8.43;4.43;;;;;;;26.32;43.62;97121.22;6127030;23;20012;-25
2023/10/11 09:02:27;;;;;;;9.80;4.47;;;;;;;26.51;43.06;97124.88;6127312;23;20002;-25
2023/10/11 09:05:28;;;;;;;8.80;4.47;;;;;;;26.55;42.71;97128.13;6127121;23;20013;-25
2023/10/11 09:07:54;;;;;;;7.57;4.00;;;;;;;26.51;43.13;97133.22;6127374;23;20009;-25
2023/10/11 09:10:27;;;;;;;7.25;4.10;;;;;;;26.47;42.86;97124.38;6127292;23;20013;-25
2023/10/11 09:12:58;;;;;;;7.15;4.60;;;;;;;26.54;42.70;97126.63;6127162;23;20021;-25
2023/10/11 09:15:40;;;;;;;12.60;4.18;;;;;;;26.47;43.49;97125.13;6127200;23;20006;-25
2023/10/11 09:18:18;;;;;;;9.95;4.55;;;;;;;26.46;43.48;97120.09;6127337;23;20320;-25
2023/10/11 09:23:47;;;;;;;9.57;3.92;;;;;;;26.58;42.82;97131.91;6102652;23;20012;-25
2023/10/11 09:26:21;;;;;;;7.68;4.18;;;;;;;26.69;43.06;97132.59;6126623;23;20006;-25
2023/10/11 09:28:58;;;;;;;9.75;4.78;;;;;;;26.73;43.04;97132.28;6127072;23;20073;-25
2023/10/11 09:31:25;;;;;;;6.55;3.70;;;;;;;26.69;42.70;97126.28;6126875;23;20009;-24
2023/10/11 09:33:52;;;;;;;6.90;4.00;;;;;;;26.62;43.52;97130.34;6126821;23;20077;-25
2023/10/11 09:36:20;;;;;;;8.43;4.07;;;;;;;26.61;43.08;97126.06;6127073;23;20014;-25
2023/10/11 09:38:54;;;;;;;8.27;4.47;;;;;;;26.59;43.38;97127.84;6126959;23;20060;-25
2023/10/11 09:41:27;;;;;;;8.07;3.85;;;;;;;26.68;42.80;97130.31;6127286;23;20320;-25
2023/10/11 09:43:57;;;;;;;7.28;3.90;;;;;;;26.73;42.98;97130.25;6101072;23;20032;-25
2023/10/11 09:46:29;;;;;;;7.70;4.20;;;;;;;26.70;42.93;97134.09;6100862;23;20314;-25
2023/10/11 09:49:03;;;;;;;6.35;4.07;;;;;;;26.72;42.72;97125.22;6126908;23;20487;-25
2023/10/11 09:51:30;;;;;;;8.45;4.47;;;;;;;26.79;42.14;97133.00;6126809;23;20026;-25
2023/10/11 09:54:01;;;;;;;6.47;3.83;;;;;;;26.77;42.53;97130.75;6126486;23;20002;-25
2023/10/11 09:56:37;;;;;;;6.35;4.38;;;;;;;26.73;42.43;97133.03;6126958;23;20002;-25
2023/10/11 09:59:23;;;;;;;8.35;4.30;;;;;;;26.72;42.61;97137.09;6126864;23;20018;-25
2023/10/11 10:02:14;;;;;;;7.45;4.22;;;;;;;26.84;42.16;97137.75;6126618;23;20089;-25
2023/10/11 10:04:52;;;;;;;13.55;4.97;;;;;;;26.78;42.36;97146.16;6126644;23;20076;-25
2023/10/11 10:07:25;;;;;;;7.57;4.47;;;;;;;26.93;41.89;97134.69;6126534;23;20095;-25
2023/10/11 10:09:52;;;;;;;9.25;4.97;;;;;;;26.78;41.79;97135.03;6126800;23;20111;-25
2023/10/11 10:12:22;;;;;;;11.45;5.57;;;;;;;26.80;41.79;97142.88;6126572;23;20002;-25
2023/10/11 10:15:00;;;;;;;7.95;4.82;;;;;;;26.74;42.22;97142.91;6126622;23;20012;-25
2023/10/11 10:17:26;;;;;;;7.32;4.90;;;;;;;26.88;41.34;97132.69;6126361;23;20009;-25
2023/10/11 10:19:52;;;;;;;8.35;4.93;;;;;;;26.77;41.36;97139.09;6126498;23;20014;-25
2023/10/11 10:22:27;;;;;;;9.63;5.43;;;;;;;26.97;40.71;97143.50;6126203;23;20013;-25
2023/10/11 10:24:56;;;;;;;10.63;5.13;;;;;;;26.97;40.80;97146.28;6126461;23;20002;-25
2023/10/11 10:27:33;;;;;;;9.23;4.47;;;;;;;26.88;40.83;97131.91;6126134;23;20016;-25
2023/10/11 10:30:07;;;;;;;9.93;4.80;;;;;;;26.83;41.14;97131.44;6126633;23;20009;-25
2023/10/11 10:32:33;;;;;;;10.40;4.32;;;;;;;26.93;40.86;97134.69;6126200;23;20329;-25
2023/10/11 10:35:20;;;;;;;8.20;4.80;;;;;;;26.92;40.82;97130.38;6126260;23;20002;-25
2023/10/11 10:37:59;;;;;;;8.20;4.50;;;;;;;26.97;40.59;97131.59;6126216;23;20018;-25
2023/10/11 10:40:26;;;;;;;7.18;4.07;;;;;;;26.94;40.58;97127.09;6126294;23;20037;-25
2023/10/11 10:43:23;;;;;;;7.32;4.25;;;;;;;26.84;39.89;97126.63;6126347;23;20006;-25
2023/10/11 10:45:52;;;;;;;10.35;4.50;;;;;;;26.97;39.70;97117.69;6126083;23;20448;-25
2023/10/11 10:48:39;;;;;;;8.27;4.45;;;;;;;26.85;39.83;97122.56;6126316;23;20028;-25
2023/10/11 10:51:05;;;;;;;8.52;3.95;;;;;;;26.96;40.02;97118.97;6126242;23;20005;-25
2023/10/11 10:53:53;;;;;;;6.50;4.35;;;;;;;26.81;40.59;97122.88;6126299;23;20492;-25
2023/10/11 10:56:25;;;;;;;8.02;4.78;;;;;;;26.93;40.18;97108.88;6126247;23;20009;-25
2023/10/11 10:59:07;;;;;;;10.77;4.22;;;;;;;26.91;40.29;97108.63;6126263;23;20005;-25
2023/10/11 11:01:36;;;;;;;10.68;4.40;;;;;;;26.95;40.02;97112.66;6126132;23;20002;-25
2023/10/11 11:04:08;;;;;;;8.25;4.38;;;;;;;27.09;40.11;97103.16;6125871;23;20006;-25
2023/10/11 11:06:44;;;;;;;6.65;4.22;;;;;;;26.95;39.75;97104.31;6126156;23;20053;-25
2023/10/11 11:09:25;;;;;;;9.95;4.57;;;;;;;26.99;39.91;97104.00;6125988;23;20337;-25
2023/10/11 11:11:54;;;;;;;7.50;4.45;;;;;;;27.01;39.32;97107.78;6100346;23;20615;-25
2023/10/11 11:14:20;;;;;;;12.05;4.60;;;;;;;27.03;39.56;97098.91;6126244;23;20452;-25
2023/10/11 11:16:59;;;;;;;9.15;4.70;;;;;;;27.09;39.51;97096.81;6126204;23;20009;-25
2023/10/11 11:19:34;;;;;;;5.53;3.90;;;;;;;27.04;39.54;97090.06;6125897;23;20005;-25
2023/10/11 11:22:15;;;;;;;7.75;4.38;;;;;;;26.97;40.16;97096.19;6126215;23;20002;-26
2023/10/11 11:24:44;;;;;;;6.85;3.60;;;;;;;26.92;40.25;97090.66;6126057;23;20002;-25
2023/10/11 11:27:15;;;;;;;8.02;3.70;;;;;;;27.00;40.14;97094.38;6125944;23;20065;-25
2023/10/11 11:29:41;;;;;;;8.43;4.50;;;;;;;27.04;39.79;97087.28;6126043;23;20013;-25
2023/10/11 11:32:16;;;;;;;8.00;4.43;;;;;;;27.07;40.09;97086.22;6126049;23;20417;-25
2023/10/11 11:35:04;;;;;;;9.32;4.28;;;;;;;27.08;39.95;97084.19;6126474;23;20349;-25
2023/10/11 11:37:31;;;;;;;6.43;3.50;;;;;;;27.14;39.30;97080.06;6125467;23;20010;-25
2023/10/11 11:40:18;;;;;;;6.65;3.75;;;;;;;27.07;39.08;97077.88;6126096;23;20002;-25
2023/10/11 11:42:49;;;;;;;8.77;3.60;;;;;;;27.11;39.02;97078.31;6125468;23;20010;-25
2023/10/11 11:45:19;;;;;;;8.95;4.30;;;;;;;27.08;39.01;97079.38;6126047;23;20002;-25
2023/10/11 11:47:56;;;;;;;6.80;3.63;;;;;;;27.09;38.88;97075.31;6127557;23;20077;-25
2023/10/11 11:50:23;;;;;;;12.98;3.85;;;;;;;27.21;38.13;97070.38;6128125;23;20008;-25
2023/10/11 11:52:50;;;;;;;8.02;3.90;;;;;;;27.12;38.01;97062.38;6127565;23;20009;-25
2023/10/11 11:55:16;;;;;;;11.05;4.30;;;;;;;27.08;38.23;97065.44;6128135;23;20006;-25
2023/10/11 11:57:42;;;;;;;10.18;3.67;;;;;;;27.21;38.36;97058.47;6127672;23;20010;-25
2023/10/11 12:02:48;;;;;;;5.65;3.30;;;;;;;27.16;37.78;97058.03;6128363;23;20006;-25
2023/10/11 12:05:14;;;;;;;10.63;3.97;;;;;;;27.07;36.99;97058.41;6127808;23;20017;-25
2023/10/11 12:07:39;;;;;;;5.88;3.00;;;;;;;27.08;35.65;97057.09;6127772;23;20006;-25
2023/10/11 12:10:23;;;;;;;10.32;3.85;;;;;;;27.16;35.24;97060.06;6127789;23;20005;-25
2023/10/11 12:12:51;;;;;;;6.95;2.92;;;;;;;27.12;34.91;97051.25;6127829;23;20030;-25
2023/10/11 12:15:18;;;;;;;4.72;2.78;;;;;;;27.20;33.70;97054.94;6127691;23;20010;-25
2023/10/11 12:17:44;;;;;;;5.10;2.60;;;;;;;27.10;32.09;97059.34;6127600;23;20040;-25
2023/10/11 12:20:12;;;;;;;7.55;2.40;;;;;;;27.21;31.81;97058.47;6127467;23;20002;-25
2023/10/11 12:22:48;;;;;;;7.90;2.65;;;;;;;27.03;31.14;97063.50;6127618;23;20017;-25
2023/10/11 12:25:14;;;;;;;4.65;2.35;;;;;;;27.06;29.91;97047.78;6127597;23;20029;-25
2023/10/11 12:27:43;;;;;;;5.90;2.58;;;;;;;27.08;30.11;97051.53;6127559;23;20003;-25
2023/10/11 12:30:19;;;;;;;11.52;3.10;;;;;;;27.17;31.79;97053.22;6127714;23;20068;-25
2023/10/11 12:32:54;;;;;;;5.78;2.50;;;;;;;27.12;30.56;97048.47;6127617;23;20376;-25
2023/10/11 12:35:23;;;;;;;8.60;2.78;;;;;;;27.16;30.38;97046.16;6127427;23;20336;-25
2023/10/11 12:37:49;;;;;;;6.10;2.83;;;;;;;27.16;30.29;97046.16;6127423;23;20041;-25